createdAt,value
2024-01-15T00:00:27.482Z,0.99
2024-01-15T00:02:55.201Z,1.07
2024-01-15T00:05:22.766Z,1.07
2024-01-15T00:07:50.469Z,1.05
2024-01-15T00:10:18.097Z,0.99
2024-01-15T00:12:45.588Z,0.93
2024-01-15T00:15:13.228Z,0.98
2024-01-15T00:17:40.828Z,1.09
2024-01-15T00:20:08.952Z,1.13
2024-01-15T00:22:39.372Z,1.12
2024-01-15T00:25:06.945Z,1.08
2024-01-15T00:27:34.427Z,1.06
2024-01-15T00:30:02.072Z,1.06
2024-01-15T00:32:29.738Z,1.08
2024-01-15T00:34:57.132Z,1.21
2024-01-15T00:37:24.557Z,1.32
2024-01-15T00:39:52.201Z,1.30
2024-01-15T00:42:19.876Z,1.24
2024-01-15T00:44:47.419Z,1.17
2024-01-15T00:47:14.843Z,1.15
2024-01-15T00:49:43.020Z,1.15
2024-01-15T00:52:10.554Z,1.22
2024-01-15T00:54:38.053Z,1.35
2024-01-15T00:57:06.116Z,1.35
2024-01-15T00:59:33.696Z,1.30
2024-01-15T01:02:01.179Z,1.29
2024-01-15T01:04:28.856Z,1.27
2024-01-15T01:06:56.301Z,1.23
2024-01-15T01:09:24.040Z,1.23
2024-01-15T01:11:51.698Z,1.34
2024-01-15T01:14:19.975Z,1.44
2024-01-15T01:16:47.286Z,1.42
2024-01-15T01:19:15.166Z,1.37
2024-01-15T01:21:44.338Z,1.32
2024-01-15T01:24:12.110Z,1.25
2024-01-15T01:26:39.667Z,1.24
2024-01-15T01:29:07.394Z,1.32
2024-01-15T01:31:34.930Z,1.40
2024-01-15T01:34:02.617Z,1.40
2024-01-15T01:36:30.262Z,1.33
2024-01-15T01:38:58.032Z,1.26
2024-01-15T01:41:25.696Z,1.22
2024-01-15T01:43:53.314Z,1.21
2024-01-15T01:46:20.825Z,1.25
2024-01-15T01:48:48.409Z,1.33
2024-01-15T01:51:16.116Z,1.32
2024-01-15T01:53:45.031Z,1.26
2024-01-15T01:56:13.317Z,1.20
2024-01-15T01:58:40.867Z,1.15
2024-01-15T02:01:08.480Z,1.14
2024-01-15T02:03:36.455Z,1.21
2024-01-15T02:06:05.098Z,1.28
2024-01-15T02:08:32.965Z,1.25
2024-01-15T02:11:00.729Z,1.17
2024-01-15T02:13:28.271Z,1.13
2024-01-15T02:15:55.956Z,1.09
2024-01-15T02:18:23.905Z,1.09
2024-01-15T02:20:52.085Z,1.18
2024-01-15T02:23:20.454Z,1.30
2024-01-15T02:25:48.132Z,1.34
2024-01-15T02:28:19.086Z,1.30
2024-01-15T02:30:47.103Z,1.27
2024-01-15T02:33:15.158Z,1.26
2024-01-15T02:35:42.669Z,1.24
2024-01-15T02:38:10.289Z,1.23
2024-01-15T02:40:37.679Z,1.32
2024-01-15T02:43:05.333Z,1.42
2024-01-15T02:45:32.739Z,1.40
2024-01-15T02:48:00.327Z,1.37
2024-01-15T02:50:27.912Z,1.36
2024-01-15T02:52:55.990Z,1.36
2024-01-15T02:55:23.362Z,1.37
2024-01-15T02:57:52.605Z,1.33
2024-01-15T03:00:20.083Z,1.32
2024-01-15T03:02:48.927Z,1.39
2024-01-15T03:05:17.244Z,1.41
2024-01-15T03:07:44.963Z,1.32
2024-01-15T03:10:12.362Z,1.31
2024-01-15T03:12:39.992Z,1.32
2024-01-15T03:15:07.652Z,1.30
2024-01-15T03:17:35.139Z,1.18
2024-01-15T03:20:02.924Z,1.26
2024-01-15T03:22:30.415Z,1.25
2024-01-15T03:24:57.984Z,1.38
2024-01-15T03:27:25.515Z,1.48
2024-01-15T03:29:53.378Z,1.44
2024-01-15T03:32:21.358Z,1.42
2024-01-15T03:34:49.694Z,1.41
2024-01-15T03:37:17.231Z,1.40
2024-01-15T03:39:44.728Z,1.38
2024-01-15T03:42:12.424Z,1.33
2024-01-15T03:44:40.079Z,1.35
2024-01-15T03:47:07.634Z,1.49
2024-01-15T03:49:35.376Z,1.46
2024-01-15T03:52:05.206Z,1.45
2024-01-15T03:54:32.547Z,1.41
2024-01-15T03:57:01.044Z,1.40
2024-01-15T03:59:28.447Z,1.38
2024-01-15T04:01:55.941Z,1.33
2024-01-15T04:04:23.917Z,1.29
2024-01-15T04:06:51.638Z,1.40
2024-01-15T04:09:19.507Z,1.49
2024-01-15T04:11:47.224Z,1.45
2024-01-15T04:14:14.880Z,1.43
2024-01-15T04:16:42.679Z,1.42
2024-01-15T04:19:10.362Z,1.37
2024-01-15T04:21:38.153Z,1.33
2024-01-15T04:24:06.355Z,1.27
2024-01-15T04:26:33.797Z,1.25
2024-01-15T04:29:01.473Z,1.39
2024-01-15T04:31:29.222Z,1.54
2024-01-15T04:33:56.913Z,1.56
2024-01-15T04:36:25.564Z,1.48
2024-01-15T04:38:53.510Z,1.43
2024-01-15T04:41:21.627Z,1.39
2024-01-15T04:43:49.192Z,1.36
2024-01-15T04:46:16.693Z,1.33
2024-01-15T04:48:44.362Z,1.33
2024-01-15T04:51:12.168Z,1.46
2024-01-15T04:53:39.649Z,1.57
2024-01-15T04:56:07.069Z,1.53
2024-01-15T04:58:34.652Z,1.51
2024-01-15T05:01:02.257Z,1.46
2024-01-15T05:03:29.900Z,1.44
2024-01-15T05:05:57.616Z,1.42
2024-01-15T05:08:25.048Z,1.39
2024-01-15T05:10:52.559Z,1.37
2024-01-15T05:13:20.125Z,1.38
2024-01-15T05:15:47.573Z,1.49
2024-01-15T05:18:15.276Z,1.63
2024-01-15T05:20:43.572Z,1.62
2024-01-15T05:23:11.174Z,1.59
2024-01-15T05:25:38.832Z,1.53
2024-01-15T05:28:07.366Z,1.47
2024-01-15T05:30:34.793Z,1.45
2024-01-15T05:33:02.702Z,1.42
2024-01-15T05:35:30.227Z,1.36
2024-01-15T05:37:57.595Z,1.31
2024-01-15T05:40:25.111Z,1.42
2024-01-15T05:42:52.599Z,1.52
2024-01-15T05:45:20.394Z,1.47
2024-01-15T05:47:48.161Z,1.41
2024-01-15T05:50:15.863Z,1.37
2024-01-15T05:52:43.295Z,1.34
2024-01-15T05:55:11.239Z,1.33
2024-01-15T05:57:38.723Z,1.30
2024-01-15T06:00:07.515Z,1.25
2024-01-15T06:02:35.172Z,1.18
2024-01-15T06:05:04.231Z,1.26
2024-01-15T06:07:31.836Z,1.39
2024-01-15T06:09:59.376Z,1.38
2024-01-15T06:12:27.536Z,1.36
2024-01-15T06:14:54.943Z,1.29
2024-01-15T06:17:22.246Z,1.20
2024-01-15T06:19:49.906Z,1.11
2024-01-15T06:22:17.723Z,1.06
2024-01-15T06:24:45.167Z,1.04
2024-01-15T06:27:12.775Z,1.02
2024-01-15T06:29:40.446Z,1.12
2024-01-15T06:32:07.996Z,1.27
2024-01-15T06:34:35.778Z,1.27
2024-01-15T06:37:03.269Z,1.19
2024-01-15T06:39:31.226Z,1.14
2024-01-15T06:41:58.674Z,1.09
2024-01-15T06:44:26.032Z,1.06
2024-01-15T06:46:54.531Z,1.05
2024-01-15T06:49:22.799Z,1.03
2024-01-15T06:51:51.360Z,1.04
2024-01-15T06:54:19.120Z,1.06
2024-01-15T06:56:46.608Z,1.09
2024-01-15T06:59:16.051Z,1.22
2024-01-15T07:01:45.076Z,1.39
2024-01-15T07:04:12.790Z,1.43
2024-01-15T07:06:40.526Z,1.41
2024-01-15T07:09:09.020Z,1.39
2024-01-15T07:11:36.612Z,1.39
2024-01-15T07:14:04.167Z,1.43
2024-01-15T07:16:37.325Z,1.46
2024-01-15T07:19:06.484Z,1.46
2024-01-15T07:21:34.162Z,1.47
2024-01-15T07:24:01.696Z,1.48
2024-01-15T07:26:29.234Z,1.53
2024-01-15T07:28:57.224Z,1.71
2024-01-15T07:31:24.639Z,1.85
2024-01-15T07:33:52.424Z,1.84
2024-01-15T07:36:20.123Z,1.83
2024-01-15T07:38:47.816Z,1.82
2024-01-15T07:41:15.408Z,1.81
2024-01-15T07:43:43.105Z,1.81
2024-01-15T07:46:10.518Z,1.82
2024-01-15T07:48:38.369Z,1.81
2024-01-15T07:51:06.283Z,1.85
2024-01-15T07:53:33.675Z,1.91
2024-01-15T07:56:01.300Z,1.95
2024-01-15T07:58:28.807Z,2.09
2024-01-15T08:00:57.233Z,2.26
2024-01-15T08:03:24.783Z,2.32
2024-01-15T08:05:54.280Z,2.30
2024-01-15T08:08:23.651Z,2.30
2024-01-15T08:10:51.216Z,2.32
2024-01-15T08:13:18.642Z,2.33
2024-01-15T08:15:46.828Z,2.34
2024-01-15T08:18:14.510Z,2.33
2024-01-15T08:20:42.478Z,2.32
2024-01-15T08:23:10.875Z,2.33
2024-01-15T08:25:38.707Z,2.33
2024-01-15T08:28:06.737Z,2.35
2024-01-15T08:30:34.505Z,2.49
2024-01-15T08:33:04.900Z,2.62
2024-01-15T08:35:38.554Z,2.66
2024-01-15T08:38:07.315Z,2.67
2024-01-15T08:40:34.768Z,2.63
2024-01-15T08:43:03.501Z,2.60
2024-01-15T08:45:32.421Z,2.59
2024-01-15T08:48:00.577Z,2.60
2024-01-15T08:50:28.425Z,2.62
2024-01-15T08:52:55.857Z,2.66
2024-01-15T08:55:26.223Z,2.71
2024-01-15T08:57:53.783Z,2.78
2024-01-15T09:00:21.255Z,2.83
2024-01-15T09:02:48.720Z,2.86
2024-01-15T09:05:16.885Z,2.86
2024-01-15T09:07:44.427Z,2.85
2024-01-15T09:10:11.758Z,2.90
2024-01-15T09:12:40.399Z,2.99
2024-01-15T09:15:09.825Z,3.08
2024-01-15T09:17:37.460Z,3.22
2024-01-15T09:20:06.908Z,3.44
2024-01-15T09:22:34.500Z,3.54
2024-01-15T09:25:02.131Z,3.57
2024-01-15T09:27:29.773Z,3.59
2024-01-15T09:29:57.193Z,3.62
2024-01-15T09:32:24.622Z,3.64
2024-01-15T09:34:52.588Z,3.66
2024-01-15T09:37:32.162Z,3.63
2024-01-15T09:40:08.469Z,3.58
2024-01-15T09:42:35.930Z,3.55
2024-01-15T09:45:05.135Z,3.48
2024-01-15T09:47:32.596Z,3.42
2024-01-15T09:50:01.061Z,3.40
2024-01-15T09:52:28.601Z,3.41
2024-01-15T09:54:56.282Z,3.43
2024-01-15T09:57:23.853Z,3.40
2024-01-15T09:59:52.468Z,3.32
2024-01-15T10:02:20.187Z,3.27
2024-01-15T10:04:47.902Z,3.26
2024-01-15T10:07:17.952Z,3.28
2024-01-15T10:09:45.823Z,3.34
2024-01-15T10:12:13.435Z,3.43
2024-01-15T10:14:41.800Z,3.53
2024-01-15T10:17:16.627Z,3.61
2024-01-15T10:19:48.467Z,3.72
2024-01-15T10:22:17.481Z,3.83
2024-01-15T10:24:44.829Z,3.91
2024-01-15T10:27:12.538Z,4.00
2024-01-15T10:29:40.364Z,4.08
2024-01-15T10:32:09.568Z,4.16
2024-01-15T10:34:50.090Z,4.20
2024-01-15T10:37:17.417Z,4.21
2024-01-15T10:39:45.552Z,4.21
2024-01-15T10:42:12.937Z,4.12
2024-01-15T10:44:44.817Z,4.05
2024-01-15T10:47:12.366Z,4.02
2024-01-15T10:49:41.378Z,3.99
2024-01-15T10:52:08.897Z,3.91
2024-01-15T10:54:36.281Z,3.88
2024-01-15T10:57:04.043Z,3.79
2024-01-15T10:59:31.526Z,3.76
2024-01-15T11:01:59.456Z,3.68
2024-01-15T11:04:30.328Z,3.64
2024-01-15T11:06:58.235Z,3.61
2024-01-15T11:09:26.120Z,3.55
2024-01-15T11:12:08.030Z,3.47
2024-01-15T11:15:00.283Z,3.44
2024-01-15T11:17:28.644Z,3.42
2024-01-15T11:19:56.249Z,3.40
2024-01-15T11:22:35.328Z,3.42
2024-01-15T11:25:04.446Z,3.43
2024-01-15T11:27:45.060Z,3.37
2024-01-15T11:30:13.369Z,3.40
2024-01-15T11:32:44.444Z,3.42
2024-01-15T11:35:12.948Z,3.44
2024-01-15T11:38:10.342Z,3.42
2024-01-15T11:40:39.356Z,3.34
2024-01-15T11:43:08.368Z,3.32
2024-01-15T11:45:36.064Z,3.31
2024-01-15T11:48:19.430Z,3.25
2024-01-15T11:50:51.796Z,3.24
2024-01-15T11:53:38.004Z,3.18
2024-01-15T11:56:07.625Z,3.16
2024-01-15T11:58:36.723Z,3.18
2024-01-15T12:01:04.548Z,3.15
2024-01-15T12:05:55.094Z,2.94
2024-01-15T12:08:25.234Z,3.10
2024-01-15T12:10:51.922Z,3.11
2024-01-15T12:13:18.494Z,3.06
2024-01-15T12:15:46.538Z,3.05
2024-01-15T12:18:15.582Z,3.01
2024-01-15T12:20:43.133Z,3.02
2024-01-15T12:23:14.063Z,3.02
2024-01-15T12:25:40.905Z,3.03
2024-01-15T12:28:07.847Z,3.01
2024-01-15T12:30:36.505Z,3.01
2024-01-15T12:33:04.628Z,2.99
2024-01-15T12:35:31.554Z,3.05
2024-01-15T12:38:01.169Z,3.10
2024-01-15T12:40:28.437Z,3.19
2024-01-15T12:42:55.877Z,3.26
2024-01-15T12:45:22.980Z,3.31
2024-01-15T12:47:51.593Z,3.34
2024-01-15T12:50:20.215Z,3.33
2024-01-15T12:52:48.233Z,3.34
2024-01-15T12:55:16.233Z,3.33
2024-01-15T12:57:43.716Z,3.32
2024-01-15T13:00:14.940Z,3.27
2024-01-15T13:02:43.737Z,3.25
2024-01-15T13:05:15.350Z,3.22
2024-01-15T13:07:43.161Z,3.24
2024-01-15T13:10:10.101Z,3.24
2024-01-15T13:12:38.399Z,3.26
2024-01-15T13:15:05.578Z,3.29
2024-01-15T13:17:32.992Z,3.28
2024-01-15T13:20:00.455Z,3.27
2024-01-15T13:22:32.726Z,3.28
2024-01-15T13:25:00.153Z,3.28
2024-01-15T13:27:27.055Z,3.28
2024-01-15T13:29:54.277Z,3.30
2024-01-15T13:32:30.933Z,3.25
2024-01-15T13:34:58.188Z,3.26
2024-01-15T13:37:24.966Z,3.23
2024-01-15T13:39:55.098Z,3.22
2024-01-15T13:42:28.036Z,3.21
2024-01-15T13:44:54.966Z,3.20
2024-01-15T13:47:21.539Z,3.20
2024-01-15T13:49:48.388Z,3.19
2024-01-15T13:52:15.616Z,3.19
2024-01-15T13:54:49.262Z,3.19
2024-01-15T13:57:18.290Z,3.18
2024-01-15T13:59:45.586Z,3.19
2024-01-15T14:02:13.946Z,3.18
2024-01-15T14:04:42.075Z,3.14
2024-01-15T14:07:08.630Z,3.13
2024-01-15T14:09:35.575Z,3.10
2024-01-15T14:12:03.123Z,3.05
2024-01-15T14:14:29.912Z,3.01
2024-01-15T14:16:57.454Z,2.96
2024-01-15T14:19:24.415Z,2.92
2024-01-15T14:22:09.471Z,2.87
2024-01-15T14:24:51.876Z,2.84
2024-01-15T14:27:19.053Z,2.81
2024-01-15T14:29:46.987Z,2.79
2024-01-15T14:32:13.653Z,2.77
2024-01-15T14:34:40.451Z,2.73
2024-01-15T14:37:07.433Z,2.70
2024-01-15T14:39:49.178Z,2.65
2024-01-15T14:42:21.765Z,2.60
2024-01-15T14:44:48.398Z,2.57
2024-01-15T14:47:14.968Z,2.51
2024-01-15T14:49:41.897Z,2.47
2024-01-15T14:52:08.765Z,2.42
2024-01-15T14:54:36.365Z,2.38
2024-01-15T14:57:03.674Z,2.38
2024-01-15T14:59:30.852Z,2.32
2024-01-15T15:01:57.779Z,2.36
2024-01-15T15:04:24.632Z,2.37
2024-01-15T15:06:51.626Z,2.36
2024-01-15T15:09:19.167Z,2.38
2024-01-15T15:11:46.685Z,2.39
2024-01-15T15:14:13.854Z,2.36
2024-01-15T15:16:40.887Z,2.37
2024-01-15T15:19:07.765Z,2.38
2024-01-15T15:21:34.892Z,2.48
2024-01-15T15:24:02.284Z,2.63
2024-01-15T15:26:29.308Z,2.63
2024-01-15T15:28:56.040Z,2.62
2024-01-15T15:31:23.573Z,2.61
2024-01-15T15:33:50.559Z,2.60
2024-01-15T15:36:19.505Z,2.58
2024-01-15T15:38:46.574Z,2.57
2024-01-15T15:41:13.506Z,2.55
2024-01-15T15:43:40.164Z,2.55
2024-01-15T15:46:07.536Z,2.54
2024-01-15T15:48:34.703Z,2.54
2024-01-15T15:51:03.207Z,2.56
2024-01-15T15:53:30.289Z,2.58
2024-01-15T15:55:57.514Z,2.60
2024-01-15T15:58:24.267Z,2.60
2024-01-15T16:00:51.206Z,2.61
2024-01-15T16:03:18.576Z,2.62
2024-01-15T16:05:52.190Z,2.63
2024-01-15T16:08:21.000Z,2.62
2024-01-15T16:10:52.087Z,2.61
2024-01-15T16:13:19.769Z,2.61
2024-01-15T16:15:46.519Z,2.68
2024-01-15T16:23:19.556Z,2.82
2024-01-15T16:23:34.025Z,2.80
2024-01-15T16:24:10.576Z,2.70
2024-01-15T16:26:34.354Z,2.61
2024-01-15T16:29:03.239Z,2.58
2024-01-15T16:31:31.980Z,2.52
2024-01-15T16:34:04.513Z,2.45
2024-01-15T16:36:33.114Z,2.40
2024-01-15T16:39:00.634Z,2.36
2024-01-15T16:41:27.552Z,2.31
2024-01-15T16:43:54.527Z,2.25
2024-01-15T16:46:21.337Z,2.21
2024-01-15T16:48:48.103Z,2.18
2024-01-15T16:51:15.108Z,2.13
2024-01-15T16:53:41.917Z,2.10
2024-01-15T16:56:08.954Z,2.06
2024-01-15T16:58:35.758Z,2.04
2024-01-15T17:01:03.017Z,2.03
2024-01-15T17:03:29.962Z,2.13
2024-01-15T17:05:56.705Z,2.22
2024-01-15T17:08:23.438Z,2.16
2024-01-15T17:10:50.580Z,2.10
2024-01-15T17:13:17.418Z,2.02
2024-01-15T17:15:44.056Z,1.94
2024-01-15T17:18:10.899Z,1.85
2024-01-15T17:20:40.746Z,1.76
2024-01-15T17:23:07.590Z,1.69
2024-01-15T17:25:34.599Z,1.63
2024-01-15T17:28:01.888Z,1.59
2024-01-15T17:30:28.717Z,1.55
2024-01-15T17:32:55.671Z,1.51
2024-01-15T17:35:23.421Z,1.58
2024-01-15T17:37:50.659Z,1.68
2024-01-15T17:40:17.702Z,1.65
2024-01-15T17:42:46.259Z,1.62
2024-01-15T17:45:13.336Z,1.54
2024-01-15T17:47:40.548Z,1.50
2024-01-15T17:50:08.715Z,1.46
2024-01-15T17:52:36.908Z,1.46
2024-01-15T17:55:04.105Z,1.44
2024-01-15T17:57:31.571Z,1.43
2024-01-15T17:59:58.527Z,1.41
2024-01-15T18:02:25.404Z,1.41
2024-01-15T18:04:52.159Z,1.51
2024-01-15T18:07:20.634Z,1.71
2024-01-15T18:09:47.365Z,1.76
2024-01-15T18:12:14.191Z,1.69
2024-01-15T18:14:41.148Z,1.63
2024-01-15T18:17:08.813Z,1.52
2024-01-15T18:19:35.949Z,1.41
2024-01-15T18:22:03.824Z,1.31
2024-01-15T18:24:30.761Z,1.25
2024-01-15T18:26:57.702Z,1.20
2024-01-15T18:29:25.371Z,1.15
2024-01-15T18:31:52.429Z,1.11
2024-01-15T18:34:19.144Z,1.15
2024-01-15T18:36:47.093Z,1.33
2024-01-15T18:39:17.151Z,1.35
2024-01-15T18:41:44.426Z,1.28
2024-01-15T18:44:11.915Z,1.21
2024-01-15T18:46:44.109Z,1.14
2024-01-15T18:49:12.061Z,1.10
2024-01-15T18:51:41.406Z,1.04
2024-01-15T18:54:08.194Z,0.99
2024-01-15T18:56:42.020Z,0.93
2024-01-15T18:59:08.900Z,0.91
2024-01-15T19:01:36.672Z,1.04
2024-01-15T19:04:03.588Z,1.18
2024-01-15T19:06:30.752Z,1.14
2024-01-15T19:08:57.540Z,1.05
2024-01-15T19:11:24.416Z,1.00
2024-01-15T19:13:51.440Z,0.96
2024-01-15T19:16:22.506Z,0.93
2024-01-15T19:18:50.472Z,0.89
2024-01-15T19:21:17.262Z,0.88
2024-01-15T19:23:44.108Z,0.86
2024-01-15T19:26:20.725Z,0.95
2024-01-15T19:28:48.241Z,1.08
2024-01-15T19:31:15.444Z,1.04
2024-01-15T19:33:43.863Z,0.95
2024-01-15T19:36:23.825Z,0.88
2024-01-15T19:38:51.401Z,0.84
2024-01-15T19:41:18.248Z,0.80
2024-01-15T19:43:44.789Z,0.75
2024-01-15T19:46:11.697Z,0.71
2024-01-15T19:48:39.629Z,0.81
2024-01-15T19:51:06.619Z,0.88
2024-01-15T19:53:33.244Z,0.83
2024-01-15T19:56:00.215Z,0.78
2024-01-15T19:58:27.445Z,0.71
2024-01-15T20:00:54.612Z,0.66
2024-01-15T20:03:22.679Z,0.61
2024-01-15T20:05:49.724Z,0.57
2024-01-15T20:08:16.619Z,0.68
2024-01-15T20:10:44.045Z,0.68
2024-01-15T20:13:10.862Z,0.62
2024-01-15T20:15:39.034Z,0.59
2024-01-15T20:18:06.946Z,0.58
2024-01-15T20:20:34.110Z,0.56
2024-01-15T20:23:01.502Z,0.52
2024-01-15T20:25:28.411Z,0.52
2024-01-15T20:27:55.044Z,0.64
2024-01-15T20:30:22.386Z,0.72
2024-01-15T20:32:49.277Z,0.69
2024-01-15T20:35:16.341Z,0.65
2024-01-15T20:37:44.248Z,0.64
2024-01-15T20:40:11.813Z,0.62
2024-01-15T20:42:39.192Z,0.62
2024-01-15T20:45:06.776Z,0.59
2024-01-15T20:47:34.513Z,0.61
2024-01-15T20:50:01.295Z,0.72
2024-01-15T20:52:28.308Z,0.86
2024-01-15T20:54:56.444Z,0.86
2024-01-15T20:57:23.393Z,0.81
2024-01-15T20:59:51.939Z,0.75
2024-01-15T21:02:19.274Z,0.73
2024-01-15T21:04:46.160Z,0.71
2024-01-15T21:07:13.150Z,0.69
2024-01-15T21:09:41.226Z,0.66
2024-01-15T21:12:11.248Z,0.74
2024-01-15T21:14:39.208Z,0.86
2024-01-15T21:17:06.174Z,0.81
2024-01-15T21:19:33.265Z,0.76
2024-01-15T21:22:00.600Z,0.73
2024-01-15T21:24:28.578Z,0.70
2024-01-15T21:26:57.720Z,0.65
2024-01-15T21:29:25.421Z,0.62
2024-01-15T21:31:52.443Z,0.61
2024-01-15T21:34:21.561Z,0.67
2024-01-15T21:36:49.648Z,0.73
2024-01-15T21:39:17.948Z,0.71
2024-01-15T21:41:44.920Z,0.67
2024-01-15T21:44:11.844Z,0.66
2024-01-15T21:46:38.711Z,0.66
2024-01-15T21:49:05.727Z,0.66
2024-01-15T21:51:33.495Z,0.65
2024-01-15T21:54:00.804Z,0.64
2024-01-15T21:56:28.645Z,0.66
2024-01-15T21:58:55.763Z,0.71
2024-01-15T22:01:23.334Z,0.67
2024-01-15T22:03:50.023Z,0.62
2024-01-15T22:06:16.887Z,0.57
2024-01-15T22:08:45.438Z,0.54
2024-01-15T22:11:12.129Z,0.50
2024-01-15T22:13:39.961Z,0.50
2024-01-15T22:16:07.390Z,0.60
2024-01-15T22:18:35.906Z,0.61
2024-01-15T22:21:02.944Z,0.58
2024-01-15T22:23:29.849Z,0.58
2024-01-15T22:25:56.383Z,0.56
2024-01-15T22:28:23.328Z,0.57
2024-01-15T22:30:49.957Z,0.57
2024-01-15T22:33:16.758Z,0.63
2024-01-15T22:35:43.585Z,0.73
2024-01-15T22:38:10.431Z,0.74
2024-01-15T22:40:37.254Z,0.70
2024-01-15T22:43:04.196Z,0.66
2024-01-15T22:45:31.035Z,0.62
2024-01-15T22:47:58.053Z,0.56
2024-01-15T22:50:25.417Z,0.54
2024-01-15T22:52:52.752Z,0.55
2024-01-15T22:55:22.704Z,0.62
2024-01-15T22:57:49.589Z,0.69
2024-01-15T23:00:20.175Z,0.66
2024-01-15T23:02:48.131Z,0.66
2024-01-15T23:05:15.334Z,0.63
2024-01-15T23:07:42.629Z,0.59
2024-01-15T23:10:09.586Z,0.56
2024-01-15T23:12:37.329Z,0.56
2024-01-15T23:15:06.097Z,0.55
2024-01-15T23:17:33.230Z,0.62
2024-01-15T23:20:00.734Z,0.73
2024-01-15T23:22:27.659Z,0.73
2024-01-15T23:24:54.582Z,0.68
2024-01-15T23:27:21.292Z,0.59
2024-01-15T23:29:48.476Z,0.51
2024-01-15T23:32:15.316Z,0.45
2024-01-15T23:34:42.165Z,0.40
2024-01-15T23:37:09.353Z,0.35
2024-01-15T23:39:36.512Z,0.40
2024-01-15T23:42:03.396Z,0.49
2024-01-15T23:44:30.252Z,0.47
2024-01-15T23:46:57.122Z,0.38
2024-01-15T23:49:24.032Z,0.31
2024-01-15T23:51:50.847Z,0.24
2024-01-15T23:54:18.370Z,0.21
2024-01-15T23:56:47.782Z,0.26
2024-01-15T23:59:15.451Z,0.34
